CYCQ

Chetwynd Airport

Chetwynd, British Columbia, Canada
METAR CYCQ 181916Z VRB02KT 15SM BKN015 BKN025 OVC035 OVC070 M17/M20 A3008 RMK SC5SC1SC2AS1 AS TR CVCTV CLD EMBD VIRGA N-SW SLP249
Observed Flight Rules
Jan-18 @ 19:16 UTC (48 minutes ago) Marginal Visual Flight Rules
Wind Visibility Clouds
Variable at 2 knots 15 miles
  • Broken at 1,500' AGL
  • Broken at 2,500' AGL
  • Overcast at 3,500' AGL
  • Overcast at 7,000' AGL
Temperatures Readings
Current -17°C / 1°F
Dewpoint -20°C / -4°F
Humidity 78%
Altimeter 30.08" Hg
Pressure 1024.9 hPa
Elevation 609
METAR CYCQ 181916Z VRB02KT 15SM BKN015 BKN025 OVC035 OVC070 M17/M20 A3008 RMK SC5SC1SC2AS1 AS TR CVCTV CLD EMBD VIRGA N-SW SLP249
Observed Flight Rules
Jan-18 @ 19:16 UTC
(48 minutes ago)
MVFR
Wind Visibility
Variable at 2 knots 15 miles
Clouds
  • Broken at 1,500' AGL
  • Broken at 2,500' AGL
  • Overcast at 3,500' AGL
  • Overcast at 7,000' AGL
Temperature Dewpoint
-17°C / 1°F -20°C / -4°F
Humidity Altimeter Pressure
78% 30.08" Hg 1024.9 hPa